sensor_id;sensor_type;location;lat;lon;timestamp;pressure;altitude;pressure_sealevel;temperature;humidity
12358;BME280;6243;51.244;6.774;2023-05-31T00:02:23;151737.72;;;16.94;100.00
12358;BME280;6243;51.244;6.774;2023-05-31T00:04:50;151731.34;;;16.91;100.00
12358;BME280;6243;51.244;6.774;2023-05-31T00:07:16;151709.63;;;16.83;100.00
12358;BME280;6243;51.244;6.774;2023-05-31T00:09:41;151732.63;;;16.92;100.00
12358;BME280;6243;51.244;6.774;2023-05-31T00:12:07;151701.94;;;16.80;100.00
12358;BME280;6243;51.244;6.774;2023-05-31T00:14:33;151724.94;;;16.89;100.00
12358;BME280;6243;51.244;6.774;2023-05-31T00:16:59;151686.66;;;16.74;100.00
12358;BME280;6243;51.244;6.774;2023-05-31T00:19:24;151689.16;;;16.75;100.00
12358;BME280;6243;51.244;6.774;2023-05-31T00:21:51;151684.06;;;16.73;100.00
12358;BME280;6243;51.244;6.774;2023-05-31T00:24:17;151686.66;;;16.74;100.00
12358;BME280;6243;51.244;6.774;2023-05-31T00:26:42;151693.03;;;16.76;100.00
12358;BME280;6243;51.244;6.774;2023-05-31T00:29:08;151698.13;;;16.78;100.00
12358;BME280;6243;51.244;6.774;2023-05-31T00:31:33;151732.63;;;16.92;100.00
12358;BME280;6243;51.244;6.774;2023-05-31T00:33:59;151730.06;;;16.91;100.00
12358;BME280;6243;51.244;6.774;2023-05-31T00:36:24;151727.53;;;16.90;100.00
12358;BME280;6243;51.244;6.774;2023-05-31T00:38:51;151740.31;;;16.95;100.00
12358;BME280;6243;51.244;6.774;2023-05-31T00:41:17;151726.22;;;16.89;100.00
12358;BME280;6243;51.244;6.774;2023-05-31T00:43:42;151747.94;;;16.98;100.00
12358;BME280;6243;51.244;6.774;2023-05-31T00:46:11;151739.03;;;16.94;100.00
12358;BME280;6243;51.244;6.774;2023-05-31T00:48:39;151773.50;;;17.08;100.00
12358;BME280;6243;51.244;6.774;2023-05-31T00:51:05;151773.50;;;17.08;100.00
12358;BME280;6243;51.244;6.774;2023-05-31T00:53:31;151747.94;;;16.98;100.00
12358;BME280;6243;51.244;6.774;2023-05-31T00:55:59;151719.84;;;16.87;100.00
12358;BME280;6243;51.244;6.774;2023-05-31T00:58:26;151719.84;;;16.87;100.00
12358;BME280;6243;51.244;6.774;2023-05-31T01:00:53;151732.63;;;16.92;100.00
12358;BME280;6243;51.244;6.774;2023-05-31T01:03:19;151676.44;;;16.70;100.00
12358;BME280;6243;51.244;6.774;2023-05-31T01:05:45;151691.75;;;16.76;100.00
12358;BME280;6243;51.244;6.774;2023-05-31T01:08:10;151622.72;;;16.49;100.00
12358;BME280;6243;51.244;6.774;2023-05-31T01:10:36;151611.25;;;16.44;100.00
12358;BME280;6243;51.244;6.774;2023-05-31T01:13:10;151611.25;;;16.44;100.00
12358;BME280;6243;51.244;6.774;2023-05-31T01:15:42;151638.09;;;16.55;100.00
12358;BME280;6243;51.244;6.774;2023-05-31T01:18:14;151655.97;;;16.62;100.00
12358;BME280;6243;51.244;6.774;2023-05-31T01:20:44;151649.59;;;16.59;100.00
12358;BME280;6243;51.244;6.774;2023-05-31T01:29:04;151684.06;;;16.73;100.00
12358;BME280;6243;51.244;6.774;2023-05-31T01:31:31;151658.56;;;16.63;100.00
12358;BME280;6243;51.244;6.774;2023-05-31T01:33:59;151659.84;;;16.63;100.00
12358;BME280;6243;51.244;6.774;2023-05-31T01:36:25;151659.84;;;16.63;100.00
12358;BME280;6243;51.244;6.774;2023-05-31T01:38:50;151655.97;;;16.62;100.00
12358;BME280;6243;51.244;6.774;2023-05-31T01:41:17;151624.03;;;16.49;100.00
12358;BME280;6243;51.244;6.774;2023-05-31T01:43:45;151640.66;;;16.56;100.00
12358;BME280;6243;51.244;6.774;2023-05-31T01:46:13;151629.16;;;16.51;100.00
12358;BME280;6243;51.244;6.774;2023-05-31T01:48:40;151650.88;;;16.60;100.00
12358;BME280;6243;51.244;6.774;2023-05-31T01:51:08;151607.44;;;16.43;100.00
12358;BME280;6243;51.244;6.774;2023-05-31T01:53:34;151603.56;;;16.41;100.00
12358;BME280;6243;51.244;6.774;2023-05-31T01:56:01;151558.88;;;16.23;100.00
12358;BME280;6243;51.244;6.774;2023-05-31T01:58:28;151580.59;;;16.32;100.00
12358;BME280;6243;51.244;6.774;2023-05-31T02:00:56;151629.16;;;16.51;100.00
12358;BME280;6243;51.244;6.774;2023-05-31T02:03:23;151621.44;;;16.48;100.00
12358;BME280;6243;51.244;6.774;2023-05-31T02:05:56;151621.44;;;16.48;100.00
12358;BME280;6243;51.244;6.774;2023-05-31T02:08:22;151576.78;;;16.30;100.00
12358;BME280;6243;51.244;6.774;2023-05-31T02:10:48;151576.78;;;16.30;100.00
12358;BME280;6243;51.244;6.774;2023-05-31T02:13:13;151611.25;;;16.44;100.00
12358;BME280;6243;51.244;6.774;2023-05-31T02:15:39;151611.25;;;16.44;100.00
12358;BME280;6243;51.244;6.774;2023-05-31T02:18:06;151572.94;;;16.29;100.00
12358;BME280;6243;51.244;6.774;2023-05-31T02:20:31;151611.25;;;16.44;100.00
12358;BME280;6243;51.244;6.774;2023-05-31T02:22:57;151595.94;;;16.38;100.00
12358;BME280;6243;51.244;6.774;2023-05-31T02:25:22;151594.66;;;16.38;100.00
12358;BME280;6243;51.244;6.774;2023-05-31T02:27:48;151620.16;;;16.48;100.00
12358;BME280;6243;51.244;6.774;2023-05-31T02:30:13;151589.53;;;16.36;100.00
12358;BME280;6243;51.244;6.774;2023-05-31T02:32:39;151626.56;;;16.50;100.00
12358;BME280;6243;51.244;6.774;2023-05-31T02:35:07;151608.66;;;16.43;100.00
12358;BME280;6243;51.244;6.774;2023-05-31T02:37:33;151620.16;;;16.48;100.00
12358;BME280;6243;51.244;6.774;2023-05-31T02:39:59;151584.44;;;16.33;100.00
12358;BME280;6243;51.244;6.774;2023-05-31T02:42:24;151617.63;;;16.47;100.00
12358;BME280;6243;51.244;6.774;2023-05-31T02:44:50;151643.19;;;16.57;100.00
12358;BME280;6243;51.244;6.774;2023-05-31T02:47:15;151626.56;;;16.50;100.00
12358;BME280;6243;51.244;6.774;2023-05-31T02:49:41;151659.84;;;16.63;100.00
12358;BME280;6243;51.244;6.774;2023-05-31T02:52:08;151618.91;;;16.47;100.00
12358;BME280;6243;51.244;6.774;2023-05-31T02:54:33;151617.63;;;16.47;100.00
12358;BME280;6243;51.244;6.774;2023-05-31T02:56:59;151560.16;;;16.24;100.00
12358;BME280;6243;51.244;6.774;2023-05-31T02:59:25;151602.28;;;16.41;100.00
12358;BME280;6243;51.244;6.774;2023-05-31T03:01:50;151620.16;;;16.48;100.00
12358;BME280;6243;51.244;6.774;2023-05-31T03:04:16;151617.63;;;16.47;100.00
12358;BME280;6243;51.244;6.774;2023-05-31T03:06:41;151509.13;;;16.04;100.00
12358;BME280;6243;51.244;6.774;2023-05-31T03:09:08;151561.47;;;16.24;100.00
12358;BME280;6243;51.244;6.774;2023-05-31T03:11:33;151575.47;;;16.30;100.00
12358;BME280;6243;51.244;6.774;2023-05-31T03:13:59;151535.91;;;16.14;100.00
12358;BME280;6243;51.244;6.774;2023-05-31T03:16:25;151497.63;;;15.99;100.00
12358;BME280;6243;51.244;6.774;2023-05-31T03:18:50;151472.06;;;15.89;100.00
12358;BME280;6243;51.244;6.774;2023-05-31T03:21:16;151544.81;;;16.18;100.00
12358;BME280;6243;51.244;6.774;2023-05-31T03:23:41;151584.44;;;16.33;100.00
12358;BME280;6243;51.244;6.774;2023-05-31T03:26:08;151463.16;;;15.86;100.00
12358;BME280;6243;51.244;6.774;2023-05-31T03:28:34;151437.63;;;15.76;100.00
12358;BME280;6243;51.244;6.774;2023-05-31T03:30:59;151426.13;;;15.71;100.00
12358;BME280;6243;51.244;6.774;2023-05-31T03:33:25;151431.22;;;15.73;100.00
12358;BME280;6243;51.244;6.774;2023-05-31T03:35:50;151442.72;;;15.78;100.00
12358;BME280;6243;51.244;6.774;2023-05-31T03:38:16;151447.81;;;15.80;100.00
12358;BME280;6243;51.244;6.774;2023-05-31T03:40:41;151418.44;;;15.68;100.00
12358;BME280;6243;51.244;6.774;2023-05-31T03:43:08;151478.47;;;15.92;100.00
12358;BME280;6243;51.244;6.774;2023-05-31T03:45:33;151451.63;;;15.81;100.00
12358;BME280;6243;51.244;6.774;2023-05-31T03:47:59;151385.28;;;15.55;100.00
12358;BME280;6243;51.244;6.774;2023-05-31T03:50:24;151431.22;;;15.73;100.00
12358;BME280;6243;51.244;6.774;2023-05-31T03:52:50;151444.00;;;15.78;100.00
12358;BME280;6243;51.244;6.774;2023-05-31T03:55:15;151458.00;;;15.84;100.00
12358;BME280;6243;51.244;6.774;2023-05-31T03:57:41;151505.25;;;16.02;100.00
12358;BME280;6243;51.244;6.774;2023-05-31T04:00:09;151532.09;;;16.13;100.00
12358;BME280;6243;51.244;6.774;2023-05-31T04:02:35;151495.06;;;15.98;100.00
12358;BME280;6243;51.244;6.774;2023-05-31T04:05:00;151546.09;;;16.18;100.00
12358;BME280;6243;51.244;6.774;2023-05-31T04:07:26;151528.22;;;16.11;100.00
12358;BME280;6243;51.244;6.774;2023-05-31T04:09:51;151569.09;;;16.27;100.00
12358;BME280;6243;51.244;6.774;2023-05-31T04:12:17;151571.66;;;16.28;100.00
12358;BME280;6243;51.244;6.774;2023-05-31T04:14:42;151590.78;;;16.36;100.00
12358;BME280;6243;51.244;6.774;2023-05-31T04:17:09;151584.44;;;16.33;100.00
12358;BME280;6243;51.244;6.774;2023-05-31T04:19:35;151627.88;;;16.51;100.00
12358;BME280;6243;51.244;6.774;2023-05-31T04:22:01;151615.06;;;16.46;100.00
12358;BME280;6243;51.244;6.774;2023-05-31T04:24:26;151616.34;;;16.46;100.00
12358;BME280;6243;51.244;6.774;2023-05-31T04:26:52;151644.47;;;16.57;100.00
12358;BME280;6243;51.244;6.774;2023-05-31T04:29:17;151645.78;;;16.58;100.00
12358;BME280;6243;51.244;6.774;2023-05-31T04:31:43;151661.06;;;16.64;100.00
12358;BME280;6243;51.244;6.774;2023-05-31T04:34:10;151652.16;;;16.60;100.00
12358;BME280;6243;51.244;6.774;2023-05-31T04:36:36;151701.94;;;16.80;100.00
12358;BME280;6243;51.244;6.774;2023-05-31T04:39:01;151710.94;;;16.83;100.00
12358;BME280;6243;51.244;6.774;2023-05-31T04:41:27;151699.44;;;16.79;100.00
12358;BME280;6243;51.244;6.774;2023-05-31T04:43:53;151681.53;;;16.72;100.00
12358;BME280;6243;51.244;6.774;2023-05-31T04:46:18;151700.66;;;16.79;100.00
12358;BME280;6243;51.244;6.774;2023-05-31T04:48:44;151712.16;;;16.84;100.00
12358;BME280;6243;51.244;6.774;2023-05-31T04:51:11;151724.94;;;16.89;100.00
12358;BME280;6243;51.244;6.774;2023-05-31T04:53:36;151763.31;;;17.04;100.00
12358;BME280;6243;51.244;6.774;2023-05-31T04:56:02;151762.00;;;17.03;100.00
12358;BME280;6243;51.244;6.774;2023-05-31T04:58:27;151783.72;;;17.12;100.00
12358;BME280;6243;51.244;6.774;2023-05-31T05:00:53;151804.19;;;17.20;100.00
12358;BME280;6243;51.244;6.774;2023-05-31T05:03:18;151806.72;;;17.21;100.00
12358;BME280;6243;51.244;6.774;2023-05-31T05:05:44;151832.28;;;17.31;100.00
12358;BME280;6243;51.244;6.774;2023-05-31T05:08:11;151852.72;;;17.39;100.00
12358;BME280;6243;51.244;6.774;2023-05-31T05:10:36;151878.31;;;17.49;100.00
12358;BME280;6243;51.244;6.774;2023-05-31T05:13:01;151900.06;;;17.58;100.00
12358;BME280;6243;51.244;6.774;2023-05-31T05:15:27;151929.47;;;17.69;100.00
12358;BME280;6243;51.244;6.774;2023-05-31T05:17:52;151944.78;;;17.76;100.00
12358;BME280;6243;51.244;6.774;2023-05-31T05:20:18;151975.47;;;17.88;100.00
12358;BME280;6243;51.244;6.774;2023-05-31T05:22:49;152013.81;;;18.03;100.00
12358;BME280;6243;51.244;6.774;2023-05-31T05:25:16;152039.41;;;18.13;100.00
12358;BME280;6243;51.244;6.774;2023-05-31T05:27:42;152079.06;;;18.28;100.00
12358;BME280;6243;51.244;6.774;2023-05-31T05:30:08;152086.75;;;18.31;100.00
12358;BME280;6243;51.244;6.774;2023-05-31T05:32:33;152075.22;;;18.27;100.00
12358;BME280;6243;51.244;6.774;2023-05-31T05:34:59;152107.19;;;18.39;100.00
12358;BME280;6243;51.244;6.774;2023-05-31T05:37:24;152146.88;;;18.55;100.00
12358;BME280;6243;51.244;6.774;2023-05-31T05:39:50;152154.56;;;18.58;98.05
12358;BME280;6243;51.244;6.774;2023-05-31T05:42:17;152189.09;;;18.72;98.26
12358;BME280;6243;51.244;6.774;2023-05-31T05:44:42;152236.44;;;18.90;94.97
12358;BME280;6243;51.244;6.774;2023-05-31T05:47:08;152255.66;;;18.98;92.95
12358;BME280;6243;51.244;6.774;2023-05-31T05:49:33;152296.59;;;19.14;93.16
12358;BME280;6243;51.244;6.774;2023-05-31T05:51:59;152300.41;;;19.16;94.05
12358;BME280;6243;51.244;6.774;2023-05-31T05:54:24;152367.00;;;19.42;90.04
12358;BME280;6243;51.244;6.774;2023-05-31T05:56:50;152361.88;;;19.40;87.52
12358;BME280;6243;51.244;6.774;2023-05-31T05:59:17;152388.78;;;19.50;86.33
12358;BME280;6243;51.244;6.774;2023-05-31T06:01:42;152411.81;;;19.59;85.52
12358;BME280;6243;51.244;6.774;2023-05-31T06:04:08;152468.16;;;19.81;84.94
12358;BME280;6243;51.244;6.774;2023-05-31T06:06:33;152507.81;;;19.97;82.66
12358;BME280;6243;51.244;6.774;2023-05-31T06:08:58;152565.44;;;20.20;82.20
12358;BME280;6243;51.244;6.774;2023-05-31T06:11:24;152579.59;;;20.25;80.16
12358;BME280;6243;51.244;6.774;2023-05-31T06:13:49;152618.00;;;20.40;79.64
12358;BME280;6243;51.244;6.774;2023-05-31T06:16:21;152648.78;;;20.52;78.21
12358;BME280;6243;51.244;6.774;2023-05-31T06:18:46;152632.13;;;20.46;77.92
12358;BME280;6243;51.244;6.774;2023-05-31T06:21:12;152678.25;;;20.64;77.61
12358;BME280;6243;51.244;6.774;2023-05-31T06:23:37;152700.00;;;20.73;76.54
12358;BME280;6243;51.244;6.774;2023-05-31T06:26:03;152757.66;;;20.95;75.46
12358;BME280;6243;51.244;6.774;2023-05-31T06:28:28;152784.66;;;21.06;73.05
12358;BME280;6243;51.244;6.774;2023-05-31T06:30:54;152798.72;;;21.11;72.13
12358;BME280;6243;51.244;6.774;2023-05-31T06:33:20;152820.50;;;21.20;72.90
12358;BME280;6243;51.244;6.774;2023-05-31T06:35:46;152842.31;;;21.29;70.75
12358;BME280;6243;51.244;6.774;2023-05-31T06:38:11;152869.22;;;21.39;70.67
12358;BME280;6243;51.244;6.774;2023-05-31T06:40:37;152898.69;;;21.51;71.82
12358;BME280;6243;51.244;6.774;2023-05-31T06:43:03;152957.69;;;21.74;71.43
12358;BME280;6243;51.244;6.774;2023-05-31T06:45:28;152964.09;;;21.76;68.15
12358;BME280;6243;51.244;6.774;2023-05-31T06:47:54;153012.84;;;21.96;68.84
12358;BME280;6243;51.244;6.774;2023-05-31T06:50:21;153064.13;;;22.16;69.15
12358;BME280;6243;51.244;6.774;2023-05-31T06:52:46;153107.75;;;22.33;67.59
12358;BME280;6243;51.244;6.774;2023-05-31T06:55:12;153133.38;;;22.43;67.33
12358;BME280;6243;51.244;6.774;2023-05-31T06:57:37;153184.78;;;22.63;68.09
12358;BME280;6243;51.244;6.774;2023-05-31T07:00:03;153205.31;;;22.71;66.92
12358;BME280;6243;51.244;6.774;2023-05-31T07:02:29;153218.13;;;22.76;67.70
12358;BME280;6243;51.244;6.774;2023-05-31T07:04:54;153274.59;;;22.98;67.25
12358;BME280;6243;51.244;6.774;2023-05-31T07:07:21;153305.41;;;23.10;63.58
12358;BME280;6243;51.244;6.774;2023-05-31T07:09:47;153313.13;;;23.13;62.72
12358;BME280;6243;51.244;6.774;2023-05-31T07:12:12;153376.06;;;23.38;63.46
12358;BME280;6243;51.244;6.774;2023-05-31T07:14:39;153413.25;;;23.53;63.68
12358;BME280;6243;51.244;6.774;2023-05-31T07:17:05;153441.53;;;23.64;62.71
12358;BME280;6243;51.244;6.774;2023-05-31T07:19:31;153480.03;;;23.79;63.70
12358;BME280;6243;51.244;6.774;2023-05-31T07:21:56;153523.66;;;23.96;62.11
12358;BME280;6243;51.244;6.774;2023-05-31T07:24:23;153546.78;;;24.05;63.33
12358;BME280;6243;51.244;6.774;2023-05-31T07:26:49;153599.50;;;24.26;61.40
12358;BME280;6243;51.244;6.774;2023-05-31T07:29:14;153602.09;;;24.27;61.68
12358;BME280;6243;51.244;6.774;2023-05-31T07:31:40;153636.75;;;24.40;62.14
12358;BME280;6243;51.244;6.774;2023-05-31T07:34:05;153668.84;;;24.53;61.44
12358;BME280;6243;51.244;6.774;2023-05-31T07:36:31;153722.81;;;24.74;61.15
12358;BME280;6243;51.244;6.774;2023-05-31T07:38:56;153761.47;;;24.89;61.00
12358;BME280;6243;51.244;6.774;2023-05-31T07:41:23;153798.69;;;25.04;60.81
12358;BME280;6243;51.244;6.774;2023-05-31T07:43:48;153839.81;;;25.20;58.88
12358;BME280;6243;51.244;6.774;2023-05-31T07:46:14;153839.81;;;25.20;58.57
12358;BME280;6243;51.244;6.774;2023-05-31T07:48:39;153847.53;;;25.23;59.55
12358;BME280;6243;51.244;6.774;2023-05-31T07:51:05;153901.59;;;25.44;57.96
12358;BME280;6243;51.244;6.774;2023-05-31T07:53:30;153919.53;;;25.51;56.54
12358;BME280;6243;51.244;6.774;2023-05-31T07:55:56;153964.59;;;25.69;56.36
12358;BME280;6243;51.244;6.774;2023-05-31T07:58:23;153980.00;;;25.75;55.30
12358;BME280;6243;51.244;6.774;2023-05-31T08:00:48;153959.44;;;25.67;53.17
12358;BME280;6243;51.244;6.774;2023-05-31T08:03:14;153995.41;;;25.81;55.75
12358;BME280;6243;51.244;6.774;2023-05-31T08:05:39;153981.28;;;25.75;53.06
12358;BME280;6243;51.244;6.774;2023-05-31T08:08:05;153971.03;;;25.71;53.21
12358;BME280;6243;51.244;6.774;2023-05-31T08:10:30;154026.28;;;25.93;53.73
12358;BME280;6243;51.244;6.774;2023-05-31T08:12:56;154086.78;;;26.17;53.26
12358;BME280;6243;51.244;6.774;2023-05-31T08:15:23;154062.28;;;26.07;52.02
12358;BME280;6243;51.244;6.774;2023-05-31T08:17:48;154115.09;;;26.28;52.46
12358;BME280;6243;51.244;6.774;2023-05-31T08:20:14;154151.09;;;26.42;53.36
12358;BME280;6243;51.244;6.774;2023-05-31T08:22:41;154212.84;;;26.66;51.77
12358;BME280;6243;51.244;6.774;2023-05-31T08:25:07;154255.34;;;26.83;51.01
12358;BME280;6243;51.244;6.774;2023-05-31T08:27:33;154300.38;;;27.00;52.34
12358;BME280;6243;51.244;6.774;2023-05-31T08:29:58;154304.22;;;27.02;49.79
12358;BME280;6243;51.244;6.774;2023-05-31T08:32:25;154193.53;;;26.58;49.21
12358;BME280;6243;51.244;6.774;2023-05-31T08:34:51;154268.22;;;26.88;51.54
12358;BME280;6243;51.244;6.774;2023-05-31T08:37:16;154351.84;;;27.20;50.54
12358;BME280;6243;51.244;6.774;2023-05-31T08:39:42;154381.44;;;27.32;48.56
12358;BME280;6243;51.244;6.774;2023-05-31T08:42:12;154448.47;;;27.58;49.65
12358;BME280;6243;51.244;6.774;2023-05-31T08:44:39;154475.47;;;27.69;48.56
12358;BME280;6243;51.244;6.774;2023-05-31T08:47:08;154520.53;;;27.86;47.09
12358;BME280;6243;51.244;6.774;2023-05-31T08:49:38;154472.94;;;27.68;45.92
12358;BME280;6243;51.244;6.774;2023-05-31T08:52:05;154470.34;;;27.67;46.46
12358;BME280;6243;51.244;6.774;2023-05-31T08:54:32;154548.84;;;27.97;47.00
12358;BME280;6243;51.244;6.774;2023-05-31T08:56:59;154597.84;;;28.17;47.04
12358;BME280;6243;51.244;6.774;2023-05-31T08:59:25;154646.81;;;28.36;45.21
12358;BME280;6243;51.244;6.774;2023-05-31T09:01:50;154721.56;;;28.65;45.78
12358;BME280;6243;51.244;6.774;2023-05-31T09:04:17;154774.41;;;28.86;46.09
12358;BME280;6243;51.244;6.774;2023-05-31T09:06:44;154773.09;;;28.85;42.84
12358;BME280;6243;51.244;6.774;2023-05-31T09:09:10;154784.69;;;28.90;44.89
12358;BME280;6243;51.244;6.774;2023-05-31T09:11:36;154767.94;;;28.83;42.40
12358;BME280;6243;51.244;6.774;2023-05-31T09:14:01;154788.53;;;28.91;44.75
12358;BME280;6243;51.244;6.774;2023-05-31T09:16:27;154842.66;;;29.12;43.82
12358;BME280;6243;51.244;6.774;2023-05-31T09:18:59;154883.97;;;29.28;43.38
12358;BME280;6243;51.244;6.774;2023-05-31T09:21:25;154911.00;;;29.39;43.46
12358;BME280;6243;51.244;6.774;2023-05-31T09:23:54;154939.41;;;29.50;43.17
12358;BME280;6243;51.244;6.774;2023-05-31T09:26:19;154769.25;;;28.84;41.49
12358;BME280;6243;51.244;6.774;2023-05-31T09:28:47;154728.00;;;28.67;40.84
12358;BME280;6243;51.244;6.774;2023-05-31T09:31:15;154693.19;;;28.54;42.43
12358;BME280;6243;51.244;6.774;2023-05-31T09:33:41;154698.31;;;28.56;41.44
12358;BME280;6243;51.244;6.774;2023-05-31T09:36:08;154748.59;;;28.75;40.69
12358;BME280;6243;51.244;6.774;2023-05-31T09:38:34;154709.97;;;28.60;39.23
12358;BME280;6243;51.244;6.774;2023-05-31T09:41:14;154680.28;;;28.49;39.58
12358;BME280;6243;51.244;6.774;2023-05-31T09:43:40;154684.13;;;28.50;40.94
12358;BME280;6243;51.244;6.774;2023-05-31T09:46:11;154552.81;;;27.99;37.85
12358;BME280;6243;51.244;6.774;2023-05-31T09:48:37;154409.81;;;27.43;38.92
12358;BME280;6243;51.244;6.774;2023-05-31T09:51:06;154460.06;;;27.63;40.82
12358;BME280;6243;51.244;6.774;2023-05-31T09:53:32;154609.44;;;28.21;41.63
12358;BME280;6243;51.244;6.774;2023-05-31T09:56:01;154584.97;;;28.11;39.63
12358;BME280;6243;51.244;6.774;2023-05-31T09:58:30;154541.16;;;27.94;40.59
12358;BME280;6243;51.244;6.774;2023-05-31T10:00:58;154596.56;;;28.16;38.90
12358;BME280;6243;51.244;6.774;2023-05-31T10:03:24;154594.00;;;28.15;38.18
12358;BME280;6243;51.244;6.774;2023-05-31T10:05:50;154442.03;;;27.56;36.09
12358;BME280;6243;51.244;6.774;2023-05-31T10:08:16;154357.00;;;27.22;36.36
12358;BME280;6243;51.244;6.774;2023-05-31T10:10:41;154252.75;;;26.82;36.11
12358;BME280;6243;51.244;6.774;2023-05-31T10:13:09;154408.56;;;27.42;37.77
12358;BME280;6243;51.244;6.774;2023-05-31T10:15:40;154487.06;;;27.73;37.15
12358;BME280;6243;51.244;6.774;2023-05-31T10:18:09;154541.16;;;27.94;37.29
12358;BME280;6243;51.244;6.774;2023-05-31T10:20:38;154442.03;;;27.56;38.29
12358;BME280;6243;51.244;6.774;2023-05-31T10:23:09;154447.16;;;27.58;39.19
12358;BME280;6243;51.244;6.774;2023-05-31T10:25:41;154474.19;;;27.68;38.64
12358;BME280;6243;51.244;6.774;2023-05-31T10:28:11;154485.78;;;27.73;39.18
12358;BME280;6243;51.244;6.774;2023-05-31T10:30:40;154412.41;;;27.44;39.18
12358;BME280;6243;51.244;6.774;2023-05-31T10:33:12;154395.69;;;27.37;40.00
12358;BME280;6243;51.244;6.774;2023-05-31T10:35:39;154384.06;;;27.33;38.85
12358;BME280;6243;51.244;6.774;2023-05-31T10:38:05;154357.00;;;27.22;39.72
12358;BME280;6243;51.244;6.774;2023-05-31T10:40:35;154373.75;;;27.29;38.92
12358;BME280;6243;51.244;6.774;2023-05-31T10:43:07;154279.81;;;26.92;38.95
12358;BME280;6243;51.244;6.774;2023-05-31T10:45:38;154422.69;;;27.48;39.15
12358;BME280;6243;51.244;6.774;2023-05-31T10:48:13;154594.00;;;28.15;40.87
12358;BME280;6243;51.244;6.774;2023-05-31T10:50:51;154501.25;;;27.79;38.33
12358;BME280;6243;51.244;6.774;2023-05-31T10:53:17;154472.94;;;27.68;38.81
12358;BME280;6243;51.244;6.774;2023-05-31T10:55:43;154413.72;;;27.45;38.38
12358;BME280;6243;51.244;6.774;2023-05-31T10:58:24;154418.84;;;27.47;39.29
12358;BME280;6243;51.244;6.774;2023-05-31T11:00:52;154467.75;;;27.66;39.00
12358;BME280;6243;51.244;6.774;2023-05-31T11:03:21;154457.44;;;27.62;39.55
12358;BME280;6243;51.244;6.774;2023-05-31T11:05:54;154373.75;;;27.29;39.43
12358;BME280;6243;51.244;6.774;2023-05-31T11:08:20;154494.81;;;27.76;40.61
12358;BME280;6243;51.244;6.774;2023-05-31T11:10:45;154526.97;;;27.89;38.76
12358;BME280;6243;51.244;6.774;2023-05-31T11:13:11;154520.53;;;27.86;38.95
12358;BME280;6243;51.244;6.774;2023-05-31T11:15:40;154505.09;;;27.80;38.04
12358;BME280;6243;51.244;6.774;2023-05-31T11:18:07;154569.53;;;28.05;38.83
12358;BME280;6243;51.244;6.774;2023-05-31T11:20:36;154529.56;;;27.90;37.32
12358;BME280;6243;51.244;6.774;2023-05-31T11:23:22;154533.41;;;27.91;38.86
12358;BME280;6243;51.244;6.774;2023-05-31T11:26:06;154416.25;;;27.46;37.90
12358;BME280;6243;51.244;6.774;2023-05-31T11:28:32;154490.91;;;27.75;38.70
12358;BME280;6243;51.244;6.774;2023-05-31T11:30:57;154422.69;;;27.48;37.96
12358;BME280;6243;51.244;6.774;2023-05-31T11:33:23;154399.53;;;27.39;39.03
12358;BME280;6243;51.244;6.774;2023-05-31T11:35:50;154420.16;;;27.47;38.88
12358;BME280;6243;51.244;6.774;2023-05-31T11:38:16;154337.72;;;27.15;38.47
12358;BME280;6243;51.244;6.774;2023-05-31T11:40:42;154498.66;;;27.78;39.53
12358;BME280;6243;51.244;6.774;2023-05-31T11:43:08;154483.22;;;27.72;38.25
12358;BME280;6243;51.244;6.774;2023-05-31T11:45:34;154349.31;;;27.19;39.10
12358;BME280;6243;51.244;6.774;2023-05-31T11:48:11;154372.47;;;27.28;38.68
12358;BME280;6243;51.244;6.774;2023-05-31T11:50:41;154404.69;;;27.41;38.97
12358;BME280;6243;51.244;6.774;2023-05-31T11:53:10;154526.97;;;27.89;38.69
12358;BME280;6243;51.244;6.774;2023-05-31T11:55:35;154439.44;;;27.55;38.05
12358;BME280;6243;51.244;6.774;2023-05-31T11:58:01;154493.50;;;27.76;39.18
12358;BME280;6243;51.244;6.774;2023-05-31T12:00:29;154606.91;;;28.20;39.35
12358;BME280;6243;51.244;6.774;2023-05-31T12:02:55;154657.09;;;28.40;38.09
12358;BME280;6243;51.244;6.774;2023-05-31T12:05:21;154444.56;;;27.57;38.80
12358;BME280;6243;51.244;6.774;2023-05-31T12:07:47;154355.75;;;27.22;38.55
12358;BME280;6243;51.244;6.774;2023-05-31T12:10:16;154362.13;;;27.24;39.06
12358;BME280;6243;51.244;6.774;2023-05-31T12:12:42;154372.47;;;27.28;39.02
12358;BME280;6243;51.244;6.774;2023-05-31T12:15:10;154425.28;;;27.49;39.86
12358;BME280;6243;51.244;6.774;2023-05-31T12:17:36;154488.38;;;27.74;38.91
12358;BME280;6243;51.244;6.774;2023-05-31T12:20:02;154413.72;;;27.45;39.26
12358;BME280;6243;51.244;6.774;2023-05-31T12:22:27;154436.88;;;27.54;39.72
12358;BME280;6243;51.244;6.774;2023-05-31T12:24:54;154483.22;;;27.72;39.37
12358;BME280;6243;51.244;6.774;2023-05-31T12:27:22;154499.94;;;27.78;37.77
12358;BME280;6243;51.244;6.774;2023-05-31T12:29:48;154508.94;;;27.82;37.56
12358;BME280;6243;51.244;6.774;2023-05-31T12:32:16;154560.53;;;28.02;38.95
12358;BME280;6243;51.244;6.774;2023-05-31T12:34:42;154424.00;;;27.49;38.13
12358;BME280;6243;51.244;6.774;2023-05-31T12:37:09;154378.91;;;27.31;38.66
12358;BME280;6243;51.244;6.774;2023-05-31T12:39:36;154368.56;;;27.27;38.97
12358;BME280;6243;51.244;6.774;2023-05-31T12:42:03;154372.47;;;27.28;39.61
12358;BME280;6243;51.244;6.774;2023-05-31T12:44:31;154499.94;;;27.78;40.15
12358;BME280;6243;51.244;6.774;2023-05-31T12:46:59;154529.56;;;27.90;38.21
12358;BME280;6243;51.244;6.774;2023-05-31T12:49:27;154449.72;;;27.59;38.15
12358;BME280;6243;51.244;6.774;2023-05-31T12:51:57;154375.00;;;27.29;38.25
12358;BME280;6243;51.244;6.774;2023-05-31T12:54:25;154444.56;;;27.57;38.58
12358;BME280;6243;51.244;6.774;2023-05-31T12:56:51;154380.16;;;27.31;38.89
12358;BME280;6243;51.244;6.774;2023-05-31T12:59:16;154448.47;;;27.58;38.93